createdAt,value
2023-04-04T00:02:01.021Z,102375.09
2023-04-04T00:04:30.113Z,102380.31
2023-04-04T00:06:57.797Z,102374.22
2023-04-04T00:09:25.452Z,102369.03
2023-04-04T00:11:53.500Z,102369.03
2023-04-04T00:14:21.628Z,102376.84
2023-04-04T00:16:49.342Z,102373.38
2023-04-04T00:19:18.282Z,102362.91
2023-04-04T00:21:47.738Z,102369.00
2023-04-04T00:24:15.465Z,102363.81
2023-04-04T00:26:43.356Z,102355.13
2023-04-04T00:29:10.982Z,102364.66
2023-04-04T00:31:38.811Z,102359.47
2023-04-04T00:34:06.919Z,102353.31
2023-04-04T00:36:34.660Z,102348.13
2023-04-04T00:39:03.704Z,102355.97
2023-04-04T00:41:31.469Z,102349.00
2023-04-04T00:43:59.157Z,102345.56
2023-04-04T00:46:27.191Z,102347.28
2023-04-04T00:48:55.071Z,102349.03
2023-04-04T00:51:22.830Z,102353.38
2023-04-04T00:53:52.440Z,102349.91
2023-04-04T00:56:22.750Z,102346.44
2023-04-04T00:58:50.613Z,102350.72
2023-04-04T01:01:18.485Z,102343.75
2023-04-04T01:03:46.441Z,102336.78
2023-04-04T01:06:15.389Z,102343.75
2023-04-04T01:08:44.023Z,102331.59
2023-04-04T01:11:11.705Z,102341.13
2023-04-04T01:13:41.092Z,102346.38
2023-04-04T01:16:09.044Z,102342.03
2023-04-04T01:18:37.534Z,102352.47
2023-04-04T01:21:10.615Z,102349.84
2023-04-04T01:23:46.302Z,102338.53
2023-04-04T01:26:15.352Z,102342.03
2023-04-04T01:28:43.045Z,102341.97
2023-04-04T01:31:12.174Z,102355.03
2023-04-04T01:33:45.662Z,102354.13
2023-04-04T01:36:18.882Z,102350.69
2023-04-04T01:38:54.229Z,102343.72
2023-04-04T01:41:24.948Z,102347.16
2023-04-04T01:43:53.406Z,102336.69
2023-04-04T01:46:21.088Z,102335.00
2023-04-04T01:48:48.869Z,102335.88
2023-04-04T01:51:17.230Z,102336.78
2023-04-04T01:53:44.920Z,102336.75
2023-04-04T01:56:13.167Z,102320.13
2023-04-04T01:58:43.340Z,102334.13
2023-04-04T02:01:11.057Z,102340.22
2023-04-04T02:03:38.732Z,102336.72
2023-04-04T02:06:07.857Z,102339.25
2023-04-04T02:08:35.684Z,102325.34
2023-04-04T02:11:03.403Z,102328.84
2023-04-04T02:13:31.062Z,102328.84
2023-04-04T02:16:00.211Z,102334.78
2023-04-04T02:18:28.359Z,102335.72
2023-04-04T02:20:57.702Z,102340.97
2023-04-04T02:23:25.854Z,102332.22
2023-04-04T02:25:53.555Z,102337.34
2023-04-04T02:28:21.304Z,102337.31
2023-04-04T02:30:50.060Z,102339.94
2023-04-04T02:33:19.146Z,102339.97
2023-04-04T02:35:46.870Z,102339.06
2023-04-04T02:38:14.583Z,102339.03
2023-04-04T02:40:42.883Z,102336.41
2023-04-04T02:43:10.832Z,102339.00
2023-04-04T02:45:38.541Z,102332.72
2023-04-04T02:48:07.664Z,102340.72
2023-04-04T02:50:37.043Z,102336.44
2023-04-04T02:53:04.742Z,102339.03
2023-04-04T02:55:32.392Z,102333.84
2023-04-04T02:58:01.850Z,102324.28
2023-04-04T03:00:29.759Z,102319.88
2023-04-04T03:02:58.302Z,102319.00
2023-04-04T03:05:26.732Z,102313.81
2023-04-04T03:07:57.443Z,102306.00
2023-04-04T03:10:25.258Z,102304.28
2023-04-04T03:12:52.976Z,102305.94
2023-04-04T03:15:21.444Z,102301.53
2023-04-04T03:17:49.201Z,102303.19
2023-04-04T03:20:16.884Z,102299.78
2023-04-04T03:22:44.529Z,102298.88
2023-04-04T03:25:13.618Z,102304.94
2023-04-04T03:27:41.312Z,102295.38
2023-04-04T03:30:10.019Z,102284.75
2023-04-04T03:32:39.338Z,102294.44
2023-04-04T03:35:08.133Z,102292.69
2023-04-04T03:37:36.454Z,102287.31
2023-04-04T03:40:04.301Z,102297.84
2023-04-04T03:42:35.683Z,102297.88
2023-04-04T03:45:03.901Z,102286.53
2023-04-04T03:47:31.616Z,102285.53
2023-04-04T03:49:59.339Z,102295.09
2023-04-04T03:52:27.651Z,102285.63
2023-04-04T03:54:55.472Z,102296.03
2023-04-04T03:57:23.166Z,102301.22
2023-04-04T03:59:52.275Z,102288.91
2023-04-04T04:02:20.059Z,102294.34
2023-04-04T04:04:47.848Z,102289.16
2023-04-04T04:07:15.518Z,102276.88
2023-04-04T04:09:43.150Z,102289.16
2023-04-04T04:12:10.863Z,102287.47
2023-04-04T04:14:38.520Z,102284.88
2023-04-04T04:17:07.621Z,102287.47
2023-04-04T04:19:35.893Z,102273.44
2023-04-04T04:22:03.570Z,102273.34
2023-04-04T04:24:31.300Z,102275.09
2023-04-04T04:26:59.003Z,102274.25
2023-04-04T04:29:26.658Z,102275.09
2023-04-04T04:31:54.844Z,102274.94
2023-04-04T04:34:24.672Z,102267.13
2023-04-04T04:36:53.791Z,102273.31
2023-04-04T04:39:21.695Z,102275.91
2023-04-04T04:41:49.509Z,102276.94
2023-04-04T04:44:17.244Z,102287.44
2023-04-04T04:46:44.895Z,102289.16
2023-04-04T04:49:12.621Z,102287.19
2023-04-04T04:51:42.577Z,102286.41
2023-04-04T04:54:11.188Z,102279.34
2023-04-04T04:56:38.891Z,102274.91
2023-04-04T04:59:09.047Z,102285.38
2023-04-04T05:01:37.020Z,102274.88
2023-04-04T05:04:04.902Z,102289.03
2023-04-04T05:06:32.687Z,102285.34
2023-04-04T05:09:02.295Z,102284.41
2023-04-04T05:11:30.020Z,102296.59
2023-04-04T05:13:57.730Z,102301.03
2023-04-04T05:16:25.464Z,102291.44
2023-04-04T05:18:53.146Z,102305.47
2023-04-04T05:21:20.857Z,102306.41
2023-04-04T05:23:48.645Z,102313.25
2023-04-04T05:26:17.688Z,102316.75
2023-04-04T05:28:45.374Z,102321.22
2023-04-04T05:31:13.230Z,102321.22
2023-04-04T05:33:40.953Z,102317.78
2023-04-04T05:36:08.799Z,102330.13
2023-04-04T05:38:37.147Z,102311.63
2023-04-04T05:41:04.882Z,102318.91
2023-04-04T05:43:33.922Z,102318.13
2023-04-04T05:46:01.628Z,102314.72
2023-04-04T05:48:29.366Z,102312.00
2023-04-04T05:50:57.039Z,102315.41
2023-04-04T05:53:24.731Z,102314.50
2023-04-04T05:55:53.576Z,102305.88
2023-04-04T05:58:21.332Z,102312.22
2023-04-04T06:00:50.428Z,102319.13
2023-04-04T06:03:20.402Z,102321.81
2023-04-04T06:05:51.475Z,102322.59
2023-04-04T06:08:19.168Z,102324.38
2023-04-04T06:10:46.887Z,102333.13
2023-04-04T06:13:14.609Z,102334.16
2023-04-04T06:15:42.372Z,102328.06
2023-04-04T06:18:11.549Z,102325.53
2023-04-04T06:20:39.457Z,102322.03
2023-04-04T06:23:07.267Z,102321.19
2023-04-04T06:25:35.080Z,102336.88
2023-04-04T06:28:04.359Z,102322.94
2023-04-04T06:30:32.019Z,102338.59
2023-04-04T06:32:59.712Z,102329.91
2023-04-04T06:35:28.936Z,102344.66
2023-04-04T06:37:56.921Z,102352.50
2023-04-04T06:40:24.678Z,102346.41
2023-04-04T06:42:55.100Z,102355.09
2023-04-04T06:45:23.592Z,102334.25
2023-04-04T06:47:51.809Z,102329.91
2023-04-04T06:50:19.748Z,102349.84
2023-04-04T06:52:48.933Z,102352.44
2023-04-04T06:55:17.016Z,102340.25
2023-04-04T06:57:44.748Z,102344.59
2023-04-04T07:00:13.803Z,102341.09
2023-04-04T07:02:41.511Z,102333.28
2023-04-04T07:05:10.100Z,102333.34
2023-04-04T07:07:37.741Z,102341.16
2023-04-04T07:10:07.780Z,102322.97
2023-04-04T07:12:35.676Z,102312.50
2023-04-04T07:15:03.943Z,102337.69
2023-04-04T07:17:32.298Z,102322.09
2023-04-04T07:20:00.635Z,102347.19
2023-04-04T07:22:29.460Z,102322.94
2023-04-04T07:24:57.667Z,102336.81
2023-04-04T07:27:26.737Z,102341.78
2023-04-04T07:29:54.445Z,102341.59
2023-04-04T07:32:24.501Z,102334.59
2023-04-04T07:34:52.576Z,102335.38
2023-04-04T07:37:21.575Z,102325.84
2023-04-04T07:39:49.990Z,102334.59
2023-04-04T07:42:22.935Z,102337.88
2023-04-04T07:44:52.188Z,102328.16
2023-04-04T07:47:20.635Z,102320.69
2023-04-04T07:49:48.469Z,102326.06
2023-04-04T07:52:16.459Z,102322.56
2023-04-04T07:54:44.669Z,102327.38
2023-04-04T07:57:12.323Z,102330.00
2023-04-04T07:59:39.994Z,102320.56
2023-04-04T08:02:09.117Z,102329.28
2023-04-04T08:04:36.885Z,102330.81
2023-04-04T08:07:04.620Z,102326.50
2023-04-04T08:09:34.546Z,102310.97
2023-04-04T08:12:02.717Z,102317.06
2023-04-04T08:14:30.541Z,102324.00
2023-04-04T08:16:58.448Z,102331.63
2023-04-04T08:19:27.540Z,102319.00
2023-04-04T08:21:55.872Z,102335.19
2023-04-04T08:24:25.121Z,102327.25
2023-04-04T08:27:04.422Z,102311.09
2023-04-04T08:29:34.478Z,102330.34
2023-04-04T08:32:02.380Z,102333.56
2023-04-04T08:34:32.058Z,102308.59
2023-04-04T08:37:00.074Z,102309.63
2023-04-04T08:39:28.162Z,102310.81
2023-04-04T08:42:01.377Z,102307.47
2023-04-04T08:44:30.013Z,102320.41
2023-04-04T08:46:57.923Z,102311.91
2023-04-04T08:49:28.073Z,102307.63
2023-04-04T08:51:58.444Z,102318.13
2023-04-04T08:54:27.872Z,102314.66
2023-04-04T08:56:55.694Z,102305.44
2023-04-04T08:59:23.471Z,102296.53
2023-04-04T09:01:53.880Z,102301.56
2023-04-04T09:04:22.867Z,102312.31
2023-04-04T09:06:51.426Z,102302.63
2023-04-04T09:09:21.435Z,102318.47
2023-04-04T09:11:49.643Z,102294.81
2023-04-04T09:14:17.590Z,102300.16
2023-04-04T09:16:45.350Z,102296.97
2023-04-04T09:19:13.054Z,102298.44
2023-04-04T09:21:40.766Z,102302.69
2023-04-04T09:24:09.073Z,102315.09
2023-04-04T09:26:50.813Z,102294.41
2023-04-04T09:29:19.550Z,102291.38
2023-04-04T09:31:49.362Z,102281.03
2023-04-04T09:34:18.538Z,102295.81
2023-04-04T09:36:47.026Z,102282.06
2023-04-04T09:39:16.553Z,102280.91
2023-04-04T09:41:45.914Z,102281.59
2023-04-04T09:44:15.094Z,102272.50
2023-04-04T09:46:42.965Z,102278.91
2023-04-04T09:49:13.164Z,102269.53
2023-04-04T09:51:42.458Z,102279.94
2023-04-04T09:54:18.567Z,102269.91
2023-04-04T09:56:50.647Z,102275.81
2023-04-04T09:59:20.006Z,102273.13
2023-04-04T10:01:51.162Z,102260.28
2023-04-04T10:04:19.743Z,102258.47
2023-04-04T10:06:47.715Z,102277.69
2023-04-04T10:09:16.441Z,102278.59
2023-04-04T10:11:44.152Z,102272.84
2023-04-04T10:14:12.224Z,102285.03
2023-04-04T10:16:46.164Z,102266.78
2023-04-04T10:19:15.472Z,102264.81
2023-04-04T10:21:43.387Z,102260.91
2023-04-04T10:24:12.151Z,102266.31
2023-04-04T10:26:39.879Z,102263.28
2023-04-04T10:29:07.580Z,102272.19
2023-04-04T10:31:35.761Z,102269.88
2023-04-04T10:34:12.826Z,102264.53
2023-04-04T10:36:46.397Z,102275.31
2023-04-04T10:39:15.639Z,102252.81
2023-04-04T10:41:43.520Z,102252.66
2023-04-04T10:44:24.561Z,102240.84
2023-04-04T10:46:54.738Z,102247.13
2023-04-04T10:49:24.174Z,102245.28
2023-04-04T10:51:56.265Z,102261.09
2023-04-04T10:54:26.303Z,102251.69
2023-04-04T10:56:54.137Z,102230.13
2023-04-04T10:59:21.979Z,102245.72
2023-04-04T11:01:58.100Z,102257.91
2023-04-04T11:04:42.413Z,102220.03
2023-04-04T11:07:14.847Z,102244.13
2023-04-04T11:09:52.981Z,102218.50
2023-04-04T11:12:28.804Z,102230.84
2023-04-04T11:15:08.485Z,102221.28
2023-04-04T11:18:02.810Z,102229.75
2023-04-04T11:20:36.622Z,102225.31
2023-04-04T11:23:09.858Z,102223.03
2023-04-04T11:25:42.152Z,102229.16
2023-04-04T11:28:26.556Z,102219.13
2023-04-04T11:31:34.642Z,102203.00
2023-04-04T11:34:05.863Z,102194.88
2023-04-04T11:36:56.012Z,102205.22
2023-04-04T11:39:28.679Z,102213.69
2023-04-04T11:41:58.810Z,102190.19
2023-04-04T11:44:30.342Z,102200.53
2023-04-04T11:47:02.611Z,102203.72
2023-04-04T11:49:32.231Z,102194.81
2023-04-04T11:52:05.502Z,102182.44
2023-04-04T11:54:33.399Z,102187.94
2023-04-04T11:57:01.619Z,102190.50
2023-04-04T11:59:30.404Z,102182.38
2023-04-04T12:01:58.312Z,102189.66
2023-04-04T12:04:27.611Z,102162.19
2023-04-04T12:06:56.571Z,102171.81
2023-04-04T12:09:27.275Z,102169.44
2023-04-04T12:11:56.929Z,102159.38
2023-04-04T12:14:25.806Z,102169.97
2023-04-04T12:16:55.145Z,102157.50
2023-04-04T12:19:24.911Z,102167.94
2023-04-04T12:21:53.526Z,102162.06
2023-04-04T12:24:21.676Z,102147.03
2023-04-04T12:26:52.918Z,102145.94
2023-04-04T12:29:22.379Z,102138.22
2023-04-04T12:31:51.118Z,102140.44
2023-04-04T12:34:19.204Z,102148.50
2023-04-04T12:36:48.510Z,102133.94
2023-04-04T12:39:18.046Z,102125.47
2023-04-04T12:41:53.148Z,102128.22
2023-04-04T12:44:29.256Z,102143.91
2023-04-04T12:46:59.984Z,102133.03
2023-04-04T12:49:30.180Z,102131.63
2023-04-04T12:52:00.564Z,102094.19
2023-04-04T12:54:29.687Z,102112.22
2023-04-04T12:56:59.412Z,102107.44
2023-04-04T12:59:30.330Z,102110.59
2023-04-04T13:01:58.307Z,102111.38
2023-04-04T13:04:26.104Z,102120.59
2023-04-04T13:08:34.586Z,102107.28
2023-04-04T13:11:06.878Z,102100.75
2023-04-04T13:13:36.419Z,102076.13
2023-04-04T13:16:06.241Z,102070.56
2023-04-04T13:18:37.312Z,102084.94
2023-04-04T13:21:05.778Z,102083.25
2023-04-04T13:23:35.713Z,102079.00
2023-04-04T13:26:04.601Z,102051.94
2023-04-04T13:28:33.095Z,102054.13
2023-04-04T13:31:03.904Z,102059.75
2023-04-04T13:33:31.765Z,102062.03
2023-04-04T13:35:59.952Z,102052.69
2023-04-04T13:38:28.055Z,102054.03
2023-04-04T13:40:58.847Z,102054.81
2023-04-04T13:43:26.617Z,102042.63
2023-04-04T13:45:55.612Z,102046.38
2023-04-04T13:48:23.855Z,102038.00
2023-04-04T13:50:53.097Z,102036.59
2023-04-04T13:53:21.616Z,102041.75
2023-04-04T13:56:02.188Z,102032.50
2023-04-04T13:58:38.847Z,102026.69
2023-04-04T14:01:07.117Z,102040.34
2023-04-04T14:03:35.069Z,102032.28
2023-04-04T14:06:09.718Z,102020.94
2023-04-04T14:08:37.916Z,102012.69
2023-04-04T14:11:05.788Z,102008.66
2023-04-04T14:13:33.631Z,102017.97
2023-04-04T14:16:02.705Z,102006.50
2023-04-04T14:18:30.583Z,102020.69
2023-04-04T14:20:58.373Z,101993.84
2023-04-04T14:23:26.353Z,102006.13
2023-04-04T14:25:54.292Z,102000.91
2023-04-04T14:28:22.035Z,102007.94
2023-04-04T14:30:51.045Z,101984.47
2023-04-04T14:33:20.549Z,101987.41
2023-04-04T14:35:48.644Z,102004.25
2023-04-04T14:38:17.294Z,101991.75
2023-04-04T14:40:45.160Z,101985.47
2023-04-04T14:43:12.865Z,101979.78
2023-04-04T14:45:41.772Z,101996.19
2023-04-04T14:48:09.820Z,101982.75
2023-04-04T14:50:40.272Z,101970.06
2023-04-04T14:53:08.064Z,101963.97
2023-04-04T14:55:35.804Z,101979.19
2023-04-04T14:58:03.632Z,101975.28
2023-04-04T15:00:31.414Z,101971.91
2023-04-04T15:02:59.428Z,101969.34
2023-04-04T15:05:27.326Z,101957.59
2023-04-04T15:07:56.646Z,101962.38
2023-04-04T15:10:24.740Z,101944.22
2023-04-04T15:12:52.444Z,101962.94
2023-04-04T15:15:21.662Z,101966.75
2023-04-04T15:17:52.045Z,101958.47
2023-04-04T15:20:19.753Z,101953.50
2023-04-04T15:22:47.529Z,101961.97
2023-04-04T15:25:16.702Z,101959.22
2023-04-04T15:27:44.430Z,101942.34
2023-04-04T15:30:14.184Z,101931.88
2023-04-04T15:32:41.906Z,101942.66
2023-04-04T15:35:17.250Z,101948.09
2023-04-04T15:37:44.944Z,101930.25
2023-04-04T15:40:13.379Z,101938.50
2023-04-04T15:42:42.736Z,101941.00
2023-04-04T15:45:12.008Z,101929.19
2023-04-04T15:47:40.096Z,101941.97
2023-04-04T15:50:08.948Z,101942.66
2023-04-04T15:52:36.673Z,101935.66
2023-04-04T15:55:05.002Z,101947.72
2023-04-04T15:57:32.675Z,101942.84
2023-04-04T16:00:01.803Z,101949.78
2023-04-04T16:02:29.513Z,101917.47
2023-04-04T16:04:57.251Z,101929.13
2023-04-04T16:07:24.976Z,101909.16
2023-04-04T16:09:52.746Z,101918.22
2023-04-04T16:12:20.459Z,101935.84
2023-04-04T16:14:48.142Z,101902.03
2023-04-04T16:17:17.319Z,101910.44
2023-04-04T16:19:45.031Z,101915.91
2023-04-04T16:22:15.168Z,101918.47
2023-04-04T16:24:42.959Z,101910.13
2023-04-04T16:27:10.749Z,101902.69
2023-04-04T16:29:38.453Z,101916.63
2023-04-04T16:32:08.162Z,101913.81
2023-04-04T16:34:38.790Z,101902.56
2023-04-04T16:37:06.778Z,101876.44
2023-04-04T16:39:34.528Z,101873.94
2023-04-04T16:42:02.393Z,101895.47
2023-04-04T16:44:30.122Z,101904.16
2023-04-04T16:46:58.043Z,101888.78
2023-04-04T16:49:25.828Z,101901.19
2023-04-04T16:51:54.906Z,101900.44
2023-04-04T16:54:22.680Z,101911.75
2023-04-04T16:56:50.396Z,101896.66
2023-04-04T16:59:18.111Z,101908.75
2023-04-04T17:01:48.934Z,101892.31
2023-04-04T17:04:16.922Z,101899.78
2023-04-04T17:06:45.787Z,101887.41
2023-04-04T17:09:14.887Z,101885.09
2023-04-04T17:11:44.706Z,101898.13
2023-04-04T17:14:12.872Z,101885.47
2023-04-04T17:16:40.645Z,101885.97
2023-04-04T17:19:08.414Z,101864.94
2023-04-04T17:21:36.293Z,101878.38
2023-04-04T17:24:04.121Z,101880.66
2023-04-04T17:26:33.168Z,101866.91
2023-04-04T17:29:00.865Z,101879.03
2023-04-04T17:31:28.683Z,101876.34
2023-04-04T17:33:56.557Z,101867.81
2023-04-04T17:36:24.303Z,101869.19
2023-04-04T17:38:52.033Z,101872.91
2023-04-04T17:41:19.787Z,101851.69
2023-04-04T17:43:48.857Z,101883.53
2023-04-04T17:46:17.011Z,101873.28
2023-04-04T17:48:44.835Z,101870.81
2023-04-04T17:51:13.238Z,101887.44
2023-04-04T17:53:41.020Z,101864.75
2023-04-04T17:56:08.694Z,101870.53
2023-04-04T17:58:36.479Z,101865.72
2023-04-04T18:01:06.476Z,101872.88
2023-04-04T18:03:34.312Z,101870.53
2023-04-04T18:06:02.471Z,101869.75
2023-04-04T18:08:30.416Z,101877.69
2023-04-04T18:10:58.945Z,101875.47
2023-04-04T18:13:26.687Z,101858.44
2023-04-04T18:15:54.600Z,101876.56
2023-04-04T18:18:24.768Z,101866.28
2023-04-04T18:20:54.334Z,101877.03
2023-04-04T18:23:22.593Z,101875.56
2023-04-04T18:25:50.447Z,101871.63
2023-04-04T18:28:18.146Z,101871.03
2023-04-04T18:30:46.038Z,101869.94
2023-04-04T18:33:13.729Z,101876.69
2023-04-04T18:35:42.861Z,101879.34
2023-04-04T18:38:11.033Z,101858.72
2023-04-04T18:40:39.238Z,101870.44
2023-04-04T18:43:07.430Z,101874.81
2023-04-04T18:45:40.231Z,101861.69
2023-04-04T18:48:09.230Z,101879.91
2023-04-04T18:50:37.176Z,101883.88
2023-04-04T18:53:06.352Z,101876.72
2023-04-04T18:55:34.136Z,101866.91
2023-04-04T18:58:01.891Z,101881.81
2023-04-04T19:00:29.657Z,101882.94
2023-04-04T19:02:57.954Z,101897.28
2023-04-04T19:05:26.124Z,101886.13
2023-04-04T19:07:54.727Z,101880.78
2023-04-04T19:10:24.014Z,101893.47
2023-04-04T19:12:51.836Z,101892.63
2023-04-04T19:15:19.613Z,101882.81
2023-04-04T19:17:47.477Z,101904.38
2023-04-04T19:20:15.258Z,101884.91
2023-04-04T19:22:43.124Z,101886.06
2023-04-04T19:25:11.088Z,101879.97
2023-04-04T19:27:40.267Z,101890.38
2023-04-04T19:30:13.635Z,101897.13
2023-04-04T19:32:41.684Z,101886.13
2023-04-04T19:35:21.130Z,101882.78
2023-04-04T19:37:48.893Z,101886.38
2023-04-04T19:40:16.890Z,101897.41
2023-04-04T19:42:45.977Z,101899.28
2023-04-04T19:45:14.258Z,101903.03
2023-04-04T19:47:42.199Z,101896.28
2023-04-04T19:50:10.846Z,101900.47
2023-04-04T19:52:38.504Z,101903.06
2023-04-04T19:55:09.686Z,101912.50
2023-04-04T19:57:38.775Z,101898.81
2023-04-04T20:00:13.368Z,101901.34
2023-04-04T20:03:00.499Z,101896.63
2023-04-04T20:05:57.706Z,101905.78
2023-04-04T20:08:41.027Z,101893.63
2023-04-04T20:11:09.196Z,101906.91
2023-04-04T20:13:38.120Z,101900.34
2023-04-04T20:16:09.366Z,101908.19
2023-04-04T20:18:38.281Z,101903.53
2023-04-04T20:21:11.213Z,101907.63
2023-04-04T20:23:45.560Z,101907.28
2023-04-04T20:26:16.073Z,101901.22
2023-04-04T20:28:47.436Z,101901.25
2023-04-04T20:31:18.266Z,101886.28
2023-04-04T20:33:46.194Z,101889.13
2023-04-04T20:36:31.543Z,101884.81
2023-04-04T20:38:59.676Z,101903.19
2023-04-04T20:41:27.592Z,101902.41
2023-04-04T20:43:57.042Z,101906.47
2023-04-04T20:46:28.143Z,101895.56
2023-04-04T20:48:57.021Z,101897.94
2023-04-04T20:51:30.033Z,101907.72
2023-04-04T20:53:59.657Z,101903.31
2023-04-04T20:56:52.399Z,101897.34
2023-04-04T20:59:35.209Z,101891.16
2023-04-04T21:02:16.737Z,101904.13
2023-04-04T21:04:48.085Z,101894.56
2023-04-04T21:07:36.914Z,101882.06
2023-04-04T21:10:20.577Z,101876.59
2023-04-04T21:12:48.262Z,101882.38
2023-04-04T21:15:22.470Z,101887.22
2023-04-04T21:17:51.956Z,101895.56
2023-04-04T21:20:53.901Z,101889.50
2023-04-04T21:23:31.140Z,101888.97
2023-04-04T21:25:59.985Z,101897.38
2023-04-04T21:28:30.760Z,101891.56
2023-04-04T21:30:58.733Z,101888.97
2023-04-04T21:33:28.172Z,101886.28
2023-04-04T21:35:57.050Z,101871.91
2023-04-04T21:38:29.506Z,101887.31
2023-04-04T21:40:58.851Z,101882.97
2023-04-04T21:43:26.812Z,101882.00
2023-04-04T21:45:55.429Z,101882.78
2023-04-04T21:48:23.464Z,101876.19
2023-04-04T21:50:52.515Z,101888.59
2023-04-04T21:53:21.903Z,101884.09
2023-04-04T21:55:49.610Z,101887.47
2023-04-04T21:58:17.242Z,101879.09
2023-04-04T22:00:44.962Z,101884.13
2023-04-04T22:03:12.684Z,101870.59
2023-04-04T22:05:40.563Z,101873.75
2023-04-04T22:08:09.963Z,101873.94
2023-04-04T22:10:45.293Z,101866.34
2023-04-04T22:13:14.651Z,101862.13
2023-04-04T22:15:44.039Z,101859.97
2023-04-04T22:18:14.927Z,101864.06
2023-04-04T22:20:44.814Z,101873.50
2023-04-04T22:25:46.664Z,101867.72
2023-04-04T22:28:18.062Z,101863.47
2023-04-04T22:30:46.004Z,101862.44
2023-04-04T22:33:13.700Z,101861.59
2023-04-04T22:35:41.434Z,101867.75
2023-04-04T22:38:09.216Z,101860.66
2023-04-04T22:40:36.903Z,101863.38
2023-04-04T22:43:06.093Z,101860.94
2023-04-04T22:45:34.485Z,101854.13
2023-04-04T22:48:03.654Z,101863.41
2023-04-04T22:50:31.366Z,101852.22
2023-04-04T22:53:01.274Z,101840.41
2023-04-04T22:55:29.440Z,101855.16
2023-04-04T22:57:57.191Z,101858.63
2023-04-04T23:00:26.257Z,101850.09
2023-04-04T23:02:54.054Z,101854.41
2023-04-04T23:05:21.798Z,101851.66
2023-04-04T23:07:52.553Z,101853.34
2023-04-04T23:10:20.664Z,101846.69
2023-04-04T23:12:48.828Z,101856.63
2023-04-04T23:15:16.929Z,101859.44
2023-04-04T23:17:46.615Z,101850.91
2023-04-04T23:20:14.537Z,101839.84
2023-04-04T23:22:42.629Z,101840.94
2023-04-04T23:25:10.969Z,101843.31
2023-04-04T23:27:38.664Z,101845.63
2023-04-04T23:30:07.542Z,101835.47
2023-04-04T23:32:35.437Z,101833.75
2023-04-04T23:35:04.839Z,101834.13
2023-04-04T23:37:32.499Z,101835.19
2023-04-04T23:40:00.165Z,101842.81
2023-04-04T23:42:27.845Z,101837.75
2023-04-04T23:44:55.631Z,101844.38
2023-04-04T23:47:23.335Z,101834.97
2023-04-04T23:49:51.602Z,101837.63
2023-04-04T23:52:20.848Z,101825.50
2023-04-04T23:54:48.522Z,101828.16
2023-04-04T23:57:17.026Z,101837.81
2023-04-04T23:59:44.763Z,101838.38
